createdAt,value
2023-04-26T00:00:45.782Z,97620.06
2023-04-26T00:03:34.811Z,97624.28
2023-04-26T00:06:24.201Z,97623.84
2023-04-26T00:09:13.397Z,97619.63
2023-04-26T00:12:03.745Z,97627.69
2023-04-26T00:14:53.009Z,97622.16
2023-04-26T00:17:42.955Z,97626.94
2023-04-26T00:20:32.093Z,97629.28
2023-04-26T00:23:21.173Z,97627.06
2023-04-26T00:26:10.207Z,97629.69
2023-04-26T00:29:00.431Z,97634.78
2023-04-26T00:31:49.584Z,97641.59
2023-04-26T00:34:39.784Z,97639.03
2023-04-26T00:37:28.976Z,97629.06
2023-04-26T00:40:18.093Z,97631.75
2023-04-26T00:43:07.915Z,97625.75
2023-04-26T00:45:58.465Z,97627.28
2023-04-26T00:48:48.459Z,97631.72
2023-04-26T00:51:37.626Z,97628.00
2023-04-26T00:54:27.067Z,97623.25
2023-04-26T00:57:16.301Z,97631.91
2023-04-26T01:00:06.792Z,97634.38
2023-04-26T01:02:57.946Z,97631.41
2023-04-26T01:05:47.712Z,97632.78
2023-04-26T01:08:36.697Z,97641.59
2023-04-26T01:11:26.814Z,97629.22
2023-04-26T01:14:16.941Z,97638.06
2023-04-26T01:17:06.741Z,97635.63
2023-04-26T01:19:57.299Z,97647.09
2023-04-26T01:22:47.684Z,97648.59
2023-04-26T01:25:38.356Z,97650.03
2023-04-26T01:28:27.598Z,97647.25
2023-04-26T01:31:16.574Z,97636.53
2023-04-26T01:34:05.942Z,97625.59
2023-04-26T01:36:54.940Z,97641.84
2023-04-26T01:39:46.592Z,97637.09
2023-04-26T01:42:35.535Z,97639.59
2023-04-26T01:45:24.510Z,97634.41
2023-04-26T01:48:32.197Z,97643.50
2023-04-26T01:51:23.557Z,97648.31
2023-04-26T01:54:12.356Z,97650.84
2023-04-26T01:57:02.873Z,97651.09
2023-04-26T01:59:51.732Z,97649.84
2023-04-26T02:02:41.325Z,97654.50
2023-04-26T02:05:30.233Z,97651.09
2023-04-26T02:08:19.031Z,97656.22
2023-04-26T02:11:08.109Z,97661.56
2023-04-26T02:13:59.838Z,97662.09
2023-04-26T02:16:48.676Z,97658.00
2023-04-26T02:19:37.570Z,97658.03
2023-04-26T02:22:26.999Z,97661.31
2023-04-26T02:25:16.598Z,97663.28
2023-04-26T02:28:06.588Z,97658.19
2023-04-26T02:30:57.348Z,97667.63
2023-04-26T02:33:46.650Z,97667.69
2023-04-26T02:36:35.878Z,97670.69
2023-04-26T02:39:24.951Z,97669.47
2023-04-26T02:42:13.978Z,97670.91
2023-04-26T02:45:03.541Z,97675.00
2023-04-26T02:47:54.226Z,97665.88
2023-04-26T02:50:43.266Z,97665.09
2023-04-26T02:53:33.550Z,97667.25
2023-04-26T02:56:23.980Z,97672.50
2023-04-26T02:59:16.337Z,97664.53
2023-04-26T03:02:05.559Z,97664.28
2023-04-26T03:04:57.327Z,97666.69
2023-04-26T03:07:46.370Z,97679.28
2023-04-26T03:10:35.470Z,97673.69
2023-04-26T03:13:24.590Z,97674.47
2023-04-26T03:16:16.351Z,97677.34
2023-04-26T03:19:05.502Z,97682.72
2023-04-26T03:21:55.848Z,97688.88
2023-04-26T03:24:45.937Z,97690.72
2023-04-26T03:27:37.251Z,97695.00
2023-04-26T03:30:26.349Z,97692.81
2023-04-26T03:33:15.971Z,97689.88
2023-04-26T03:36:05.528Z,97685.59
2023-04-26T03:38:56.522Z,97690.19
2023-04-26T03:41:46.670Z,97689.03
2023-04-26T03:44:36.638Z,97691.75
2023-04-26T03:47:25.548Z,97691.50
2023-04-26T03:50:14.510Z,97690.41
2023-04-26T03:53:03.378Z,97698.75
2023-04-26T03:55:55.838Z,97702.47
2023-04-26T03:58:44.829Z,97704.13
2023-04-26T04:01:33.675Z,97714.09
2023-04-26T04:04:23.182Z,97707.91
2023-04-26T04:07:12.704Z,97707.69
2023-04-26T04:10:01.521Z,97718.72
2023-04-26T04:12:52.421Z,97717.16
2023-04-26T04:15:41.584Z,97710.97
2023-04-26T04:18:31.613Z,97720.38
2023-04-26T04:21:21.340Z,97718.00
2023-04-26T04:24:10.359Z,97714.78
2023-04-26T04:27:01.169Z,97721.16
2023-04-26T04:29:51.783Z,97715.22
2023-04-26T04:32:42.367Z,97726.34
2023-04-26T04:35:33.820Z,97731.69
2023-04-26T04:38:25.508Z,97724.38
2023-04-26T04:41:15.272Z,97728.19
2023-04-26T04:44:04.112Z,97728.91
2023-04-26T04:46:54.594Z,97734.56
2023-04-26T04:49:44.814Z,97739.34
2023-04-26T04:52:34.277Z,97738.47
2023-04-26T04:55:23.537Z,97742.97
2023-04-26T04:58:14.015Z,97745.84
2023-04-26T05:01:03.566Z,97752.69
2023-04-26T05:04:04.689Z,97743.09
2023-04-26T05:06:53.728Z,97746.53
2023-04-26T05:09:45.770Z,97740.50
2023-04-26T05:12:36.740Z,97746.53
2023-04-26T05:15:25.693Z,97739.50
2023-04-26T05:18:14.701Z,97742.50
2023-04-26T05:21:05.616Z,97744.16
2023-04-26T05:23:56.567Z,97746.06
2023-04-26T05:26:45.558Z,97751.06
2023-04-26T05:29:57.366Z,97747.09
2023-04-26T05:33:09.122Z,97746.72
2023-04-26T05:36:07.105Z,97744.69
2023-04-26T05:38:55.988Z,97750.38
2023-04-26T05:41:45.079Z,97748.66
2023-04-26T05:44:34.487Z,97744.28
2023-04-26T05:47:24.272Z,97752.31
2023-04-26T05:50:15.043Z,97753.72
2023-04-26T05:53:05.376Z,97748.19
2023-04-26T05:55:54.232Z,97752.88
2023-04-26T05:58:44.638Z,97760.81
2023-04-26T06:01:33.585Z,97750.63
2023-04-26T06:04:24.443Z,97750.56
2023-04-26T06:07:24.806Z,97750.94
2023-04-26T06:10:18.634Z,97748.25
2023-04-26T06:13:08.039Z,97747.13
2023-04-26T06:16:01.011Z,97750.81
2023-04-26T06:18:50.028Z,97752.22
2023-04-26T06:21:39.017Z,97757.88
2023-04-26T06:24:28.204Z,97763.59
2023-04-26T06:27:18.652Z,97760.63
2023-04-26T06:30:11.433Z,97762.22
2023-04-26T06:33:04.567Z,97758.34
2023-04-26T06:35:55.333Z,97756.34
2023-04-26T06:38:46.552Z,97753.38
2023-04-26T06:41:35.599Z,97767.25
2023-04-26T06:44:26.234Z,97765.97
2023-04-26T06:47:22.186Z,97771.81
2023-04-26T06:50:12.517Z,97771.13
2023-04-26T06:53:01.460Z,97769.69
2023-04-26T06:55:50.364Z,97771.31
2023-04-26T06:58:39.346Z,97774.38
2023-04-26T07:01:33.451Z,97770.75
2023-04-26T07:04:22.590Z,97777.19
2023-04-26T07:07:13.630Z,97782.22
2023-04-26T07:10:02.858Z,97776.25
2023-04-26T07:12:53.518Z,97780.00
2023-04-26T07:15:42.503Z,97788.25
2023-04-26T07:18:32.826Z,97784.50
2023-04-26T07:21:21.937Z,97782.41
2023-04-26T07:24:11.001Z,97785.13
2023-04-26T07:27:00.051Z,97789.63
2023-04-26T07:29:48.976Z,97779.13
2023-04-26T07:32:40.071Z,97781.50
2023-04-26T07:35:31.005Z,97775.50
2023-04-26T07:38:20.997Z,97775.25
2023-04-26T07:41:10.556Z,97769.81
2023-04-26T07:43:59.519Z,97772.22
2023-04-26T07:46:48.422Z,97769.72
2023-04-26T07:49:37.404Z,97767.47
2023-04-26T07:52:27.721Z,97772.41
2023-04-26T07:55:17.746Z,97768.22
2023-04-26T07:58:14.516Z,97763.44
2023-04-26T08:01:04.219Z,97758.59
2023-04-26T08:03:53.618Z,97747.81
2023-04-26T08:06:45.101Z,97752.34
2023-04-26T08:09:35.766Z,97748.09
2023-04-26T08:12:25.767Z,97752.41
2023-04-26T08:15:16.236Z,97751.44
2023-04-26T08:18:05.427Z,97764.00
2023-04-26T08:20:55.246Z,97757.47
2023-04-26T08:23:44.458Z,97759.63
2023-04-26T08:26:34.811Z,97751.09
2023-04-26T08:29:24.772Z,97754.19
2023-04-26T08:32:15.091Z,97761.66
2023-04-26T08:35:04.314Z,97761.59
2023-04-26T08:37:53.540Z,97767.56
2023-04-26T08:40:48.016Z,97756.41
2023-04-26T08:43:41.648Z,97763.47
2023-04-26T08:46:36.434Z,97752.91
2023-04-26T08:49:42.418Z,97753.63
2023-04-26T08:52:32.833Z,97748.84
2023-04-26T08:55:22.053Z,97749.75
2023-04-26T08:58:14.139Z,97758.88
2023-04-26T09:01:08.022Z,97751.84
2023-04-26T09:03:58.171Z,97757.38
2023-04-26T09:06:49.648Z,97758.59
2023-04-26T09:09:43.583Z,97753.94
2023-04-26T09:12:32.642Z,97749.81
2023-04-26T09:15:23.837Z,97750.94
2023-04-26T09:18:22.902Z,97744.06
2023-04-26T09:21:17.814Z,97745.06
2023-04-26T09:24:07.606Z,97747.25
2023-04-26T09:27:03.424Z,97747.97
2023-04-26T09:30:06.482Z,97733.91
2023-04-26T09:33:00.444Z,97746.22
2023-04-26T09:35:50.811Z,97735.06
2023-04-26T09:38:44.454Z,97749.28
2023-04-26T09:41:45.709Z,97740.16
2023-04-26T09:44:35.099Z,97737.16
2023-04-26T09:47:24.045Z,97737.59
2023-04-26T09:50:13.024Z,97732.72
2023-04-26T09:53:04.842Z,97739.72
2023-04-26T09:55:56.854Z,97740.88
2023-04-26T09:59:03.558Z,97723.59
2023-04-26T10:01:52.848Z,97725.47
2023-04-26T10:04:43.191Z,97727.75
2023-04-26T10:07:34.386Z,97733.09
2023-04-26T10:10:25.270Z,97724.19
2023-04-26T10:13:16.824Z,97738.81
2023-04-26T10:16:07.982Z,97734.31
2023-04-26T10:18:57.831Z,97737.47
2023-04-26T10:21:49.864Z,97729.47
2023-04-26T10:24:41.042Z,97721.53
2023-04-26T10:27:53.218Z,97718.91
2023-04-26T10:31:01.426Z,97716.00
2023-04-26T10:34:21.816Z,97725.50
2023-04-26T10:37:13.098Z,97719.34
2023-04-26T10:40:29.499Z,97719.78
2023-04-26T10:43:32.846Z,97725.81
2023-04-26T10:46:39.007Z,97720.81
2023-04-26T10:49:45.644Z,97711.31
2023-04-26T10:52:35.924Z,97714.09
2023-04-26T10:55:40.892Z,97700.97
2023-04-26T10:58:33.104Z,97711.59
2023-04-26T11:01:22.061Z,97713.41
2023-04-26T11:04:14.992Z,97714.69
2023-04-26T11:07:05.095Z,97711.56
2023-04-26T11:09:54.140Z,97705.41
2023-04-26T11:12:43.898Z,97706.09
2023-04-26T11:15:36.962Z,97698.50
2023-04-26T11:18:26.450Z,97693.81
2023-04-26T11:21:18.771Z,97684.09
2023-04-26T11:24:08.922Z,97683.38
2023-04-26T11:26:58.201Z,97687.09
2023-04-26T11:29:47.111Z,97676.75
2023-04-26T11:32:37.275Z,97686.06
2023-04-26T11:35:29.801Z,97686.00
2023-04-26T11:38:23.741Z,97684.78
2023-04-26T11:41:12.800Z,97681.81
2023-04-26T11:44:02.985Z,97677.19
2023-04-26T11:46:53.455Z,97684.16
2023-04-26T11:49:44.423Z,97687.72
2023-04-26T11:52:34.199Z,97678.97
2023-04-26T11:55:28.981Z,97686.38
2023-04-26T11:58:17.809Z,97683.69
2023-04-26T12:01:06.674Z,97681.66
2023-04-26T12:03:59.700Z,97680.50
2023-04-26T12:06:52.692Z,97681.13
2023-04-26T12:09:43.595Z,97673.25
2023-04-26T12:12:32.427Z,97682.03
2023-04-26T12:15:25.074Z,97676.56
2023-04-26T12:18:14.802Z,97684.91
2023-04-26T12:21:06.453Z,97680.38
2023-04-26T12:23:58.037Z,97679.22
2023-04-26T12:26:46.940Z,97679.06
2023-04-26T12:29:37.650Z,97672.25
2023-04-26T12:32:27.052Z,97682.47
2023-04-26T12:35:17.063Z,97686.59
2023-04-26T12:38:06.976Z,97675.81
2023-04-26T12:40:58.003Z,97677.31
2023-04-26T12:43:47.757Z,97679.16
2023-04-26T12:46:36.762Z,97662.47
2023-04-26T12:49:29.627Z,97664.06
2023-04-26T12:52:18.444Z,97658.22
2023-04-26T12:55:10.258Z,97659.28
2023-04-26T12:58:01.079Z,97650.47
2023-04-26T13:00:51.259Z,97654.88
2023-04-26T13:03:40.832Z,97658.78
2023-04-26T13:06:29.799Z,97650.69
2023-04-26T13:09:18.889Z,97663.38
2023-04-26T13:12:08.581Z,97661.84
2023-04-26T13:15:00.042Z,97663.16
2023-04-26T13:17:49.086Z,97671.81
2023-04-26T13:20:38.253Z,97669.56
2023-04-26T13:23:27.138Z,97664.59
2023-04-26T13:26:17.554Z,97650.69
2023-04-26T13:29:06.710Z,97648.84
2023-04-26T13:31:57.550Z,97649.84
2023-04-26T13:34:48.277Z,97658.28
2023-04-26T13:37:37.310Z,97660.34
2023-04-26T13:40:26.277Z,97657.81
2023-04-26T13:43:15.232Z,97660.03
2023-04-26T13:46:04.498Z,97656.81
2023-04-26T13:48:55.155Z,97657.81
2023-04-26T13:51:44.160Z,97651.44
2023-04-26T13:54:33.082Z,97654.66
2023-04-26T13:57:22.049Z,97646.97
2023-04-26T14:00:15.261Z,97641.94
2023-04-26T14:03:06.210Z,97643.91
2023-04-26T14:06:03.979Z,97641.63
2023-04-26T14:08:53.017Z,97640.38
2023-04-26T14:11:42.827Z,97643.34
2023-04-26T14:14:32.199Z,97637.34
2023-04-26T14:17:24.009Z,97632.41
2023-04-26T14:20:13.643Z,97635.41
2023-04-26T14:23:04.162Z,97632.25
2023-04-26T14:25:53.981Z,97631.19
2023-04-26T14:28:43.098Z,97628.34
2023-04-26T14:31:35.002Z,97629.22
2023-04-26T14:34:23.890Z,97629.91
2023-04-26T14:37:12.907Z,97632.97
2023-04-26T14:40:04.184Z,97646.53
2023-04-26T14:42:53.106Z,97631.72
2023-04-26T14:45:45.165Z,97636.34
2023-04-26T14:48:34.146Z,97644.63
2023-04-26T14:51:24.428Z,97635.16
2023-04-26T14:54:15.906Z,97632.41
2023-04-26T14:57:06.249Z,97627.38
2023-04-26T14:59:55.294Z,97638.53
2023-04-26T15:02:44.668Z,97629.00
2023-04-26T15:05:33.924Z,97629.44
2023-04-26T15:08:22.984Z,97635.50
2023-04-26T15:11:11.914Z,97632.41
2023-04-26T15:14:04.623Z,97630.53
2023-04-26T15:16:55.610Z,97624.06
2023-04-26T15:19:45.505Z,97628.13
2023-04-26T15:22:37.992Z,97633.59
2023-04-26T15:25:27.642Z,97637.47
2023-04-26T15:28:17.997Z,97628.41
2023-04-26T15:31:12.040Z,97630.63
2023-04-26T15:34:08.446Z,97634.06
2023-04-26T15:37:01.371Z,97635.88
2023-04-26T15:39:54.654Z,97628.69
2023-04-26T15:42:46.180Z,97633.75
2023-04-26T15:45:39.654Z,97626.84
2023-04-26T15:48:30.021Z,97619.84
2023-04-26T15:51:20.202Z,97615.84
2023-04-26T15:54:10.179Z,97627.00
2023-04-26T15:57:04.001Z,97627.38
2023-04-26T15:59:58.913Z,97623.75
2023-04-26T16:02:48.149Z,97630.34
2023-04-26T16:05:40.199Z,97624.09
2023-04-26T16:08:40.356Z,97632.41
2023-04-26T16:11:33.386Z,97630.03
2023-04-26T16:14:23.090Z,97629.69
2023-04-26T16:17:12.041Z,97620.13
2023-04-26T16:20:01.968Z,97623.03
2023-04-26T16:22:53.036Z,97628.66
2023-04-26T16:25:42.572Z,97619.47
2023-04-26T16:28:58.521Z,97620.47
2023-04-26T16:31:49.040Z,97623.88
2023-04-26T16:34:42.315Z,97632.09
2023-04-26T16:37:34.689Z,97628.44
2023-04-26T16:40:24.868Z,97626.69
2023-04-26T16:43:14.414Z,97626.47
2023-04-26T16:46:11.594Z,97626.94
2023-04-26T16:49:01.093Z,97626.13
2023-04-26T16:51:53.914Z,97634.19
2023-04-26T16:54:43.989Z,97635.63
2023-04-26T16:57:35.555Z,97632.09
2023-04-26T17:00:33.757Z,97635.81
2023-04-26T17:03:24.738Z,97645.41
2023-04-26T17:06:16.249Z,97643.28
2023-04-26T17:09:05.708Z,97643.38
2023-04-26T17:11:54.603Z,97644.44
2023-04-26T17:14:46.674Z,97650.53
2023-04-26T17:17:35.706Z,97648.47
2023-04-26T17:20:24.744Z,97647.38
2023-04-26T17:23:13.669Z,97650.75
2023-04-26T17:26:04.305Z,97657.06
2023-04-26T17:28:53.829Z,97655.31
2023-04-26T17:31:44.548Z,97664.69
2023-04-26T17:34:34.300Z,97662.72
2023-04-26T17:37:23.759Z,97658.94
2023-04-26T17:40:13.668Z,97661.34
2023-04-26T17:43:03.303Z,97658.84
2023-04-26T17:45:52.323Z,97662.38
2023-04-26T17:48:43.325Z,97670.28
2023-04-26T17:51:33.000Z,97676.28
2023-04-26T17:54:22.404Z,97666.22
2023-04-26T17:57:11.685Z,97665.16
2023-04-26T18:00:00.735Z,97675.56
2023-04-26T18:02:49.847Z,97676.09
2023-04-26T18:05:40.386Z,97680.13
2023-04-26T18:08:29.947Z,97680.94
2023-04-26T18:11:21.028Z,97691.66
2023-04-26T18:14:11.485Z,97688.47
2023-04-26T18:17:00.710Z,97696.75
2023-04-26T18:19:49.723Z,97703.00
2023-04-26T18:22:40.088Z,97707.94
2023-04-26T18:25:29.116Z,97706.97
2023-04-26T18:28:18.003Z,97708.13
2023-04-26T18:31:10.716Z,97709.88
2023-04-26T18:34:03.421Z,97708.59
2023-04-26T18:36:52.314Z,97714.66
2023-04-26T18:39:42.783Z,97716.25
2023-04-26T18:42:32.119Z,97721.69
2023-04-26T18:45:21.144Z,97726.16
2023-04-26T18:48:10.186Z,97724.25
2023-04-26T18:50:59.057Z,97724.72
2023-04-26T18:53:47.996Z,97727.44
2023-04-26T18:56:38.506Z,97731.25
2023-04-26T18:59:27.576Z,97738.28
2023-04-26T19:02:16.733Z,97736.03
2023-04-26T19:05:07.039Z,97741.47
2023-04-26T19:07:56.119Z,97748.75
2023-04-26T19:10:45.231Z,97744.34
2023-04-26T19:13:36.013Z,97750.41
2023-04-26T19:16:24.988Z,97745.44
2023-04-26T19:19:14.033Z,97755.16
2023-04-26T19:22:03.461Z,97752.63
2023-04-26T19:24:52.683Z,97757.53
2023-04-26T19:27:41.923Z,97756.75
2023-04-26T19:30:32.604Z,97759.09
2023-04-26T19:33:21.565Z,97760.78
2023-04-26T19:36:10.825Z,97768.59
2023-04-26T19:39:00.742Z,97773.16
2023-04-26T19:41:50.415Z,97777.50
2023-04-26T19:44:39.649Z,97777.75
2023-04-26T19:47:30.440Z,97771.66
2023-04-26T19:50:19.637Z,97777.53
2023-04-26T19:53:09.853Z,97776.63
2023-04-26T19:55:58.920Z,97774.50
2023-04-26T19:58:47.995Z,97790.75
2023-04-26T20:01:39.745Z,97785.38
2023-04-26T20:04:30.614Z,97787.22
2023-04-26T20:07:20.134Z,97790.59
2023-04-26T20:10:11.124Z,97786.88
2023-04-26T20:13:00.696Z,97786.06
2023-04-26T20:15:53.666Z,97788.75
2023-04-26T20:18:43.444Z,97792.38
2023-04-26T20:21:34.664Z,97792.25
2023-04-26T20:24:27.845Z,97793.78
2023-04-26T20:27:17.246Z,97786.78
2023-04-26T20:30:08.822Z,97804.63
2023-04-26T20:32:59.079Z,97803.81
2023-04-26T20:35:50.736Z,97798.03
2023-04-26T20:38:43.491Z,97795.22
2023-04-26T20:41:32.816Z,97794.91
2023-04-26T20:44:21.775Z,97797.50
2023-04-26T20:47:10.709Z,97792.88
2023-04-26T20:49:59.859Z,97807.78
2023-04-26T20:52:49.202Z,97802.28
2023-04-26T20:55:40.190Z,97791.38
2023-04-26T20:58:30.528Z,97801.41
2023-04-26T21:01:19.512Z,97802.38
2023-04-26T21:04:08.770Z,97804.88
2023-04-26T21:06:58.165Z,97806.16
2023-04-26T21:09:49.217Z,97814.97
2023-04-26T21:12:41.692Z,97814.16
2023-04-26T21:15:30.779Z,97814.91
2023-04-26T21:18:19.722Z,97820.31
2023-04-26T21:21:09.002Z,97822.72
2023-04-26T21:23:58.043Z,97820.47
2023-04-26T21:26:47.349Z,97813.72
2023-04-26T21:29:37.657Z,97818.22
2023-04-26T21:32:26.597Z,97826.47
2023-04-26T21:35:15.455Z,97828.34
2023-04-26T21:38:05.469Z,97829.47
2023-04-26T21:40:55.630Z,97826.50
2023-04-26T21:44:02.120Z,97830.25
2023-04-26T21:46:52.454Z,97836.94
2023-04-26T21:49:57.435Z,97830.25
2023-04-26T21:52:46.323Z,97841.97
2023-04-26T21:55:35.201Z,97838.09
2023-04-26T21:58:38.133Z,97844.22
2023-04-26T22:01:41.316Z,97832.38
2023-04-26T22:04:31.760Z,97841.66
2023-04-26T22:07:21.007Z,97846.03
2023-04-26T22:11:16.479Z,97840.53
2023-04-26T22:14:05.534Z,97842.78
2023-04-26T22:16:54.449Z,97847.34
2023-04-26T22:20:01.901Z,97848.28
2023-04-26T22:22:51.018Z,97845.81
2023-04-26T22:25:40.232Z,97848.03
2023-04-26T22:29:00.490Z,97840.31
2023-04-26T22:31:57.172Z,97844.25
2023-04-26T22:34:47.465Z,97845.28
2023-04-26T22:37:36.695Z,97842.31
2023-04-26T22:40:26.689Z,97851.34
2023-04-26T22:43:15.803Z,97845.59
2023-04-26T22:46:05.041Z,97843.47
2023-04-26T22:49:02.146Z,97851.00
2023-04-26T22:52:09.863Z,97849.38
2023-04-26T22:55:03.282Z,97843.41
2023-04-26T22:57:52.464Z,97846.28
2023-04-26T23:00:51.308Z,97843.88
2023-04-26T23:03:40.533Z,97833.91
2023-04-26T23:06:29.697Z,97859.16
2023-04-26T23:10:34.405Z,97848.50
2023-04-26T23:19:22.775Z,97855.72
2023-04-26T23:26:19.385Z,97857.94
2023-04-26T23:33:52.020Z,97851.47
2023-04-26T23:36:42.265Z,97862.22
2023-04-26T23:39:34.526Z,97849.38
2023-04-26T23:42:23.504Z,97858.13
2023-04-26T23:45:12.994Z,97866.97
2023-04-26T23:48:02.013Z,97853.00
2023-04-26T23:50:53.275Z,97861.41
2023-04-26T23:53:44.553Z,97855.72
2023-04-26T23:56:33.517Z,97856.03
2023-04-26T23:59:23.151Z,97854.88
